sensor_id;sensor_type;location;lat;lon;timestamp;temperature;humidity
37658;DHT22;23500;53.268;8.308;2023-07-20T00:00:06;21.50;70.00
37658;DHT22;23500;53.268;8.308;2023-07-20T00:02:32;21.50;70.00
37658;DHT22;23500;53.268;8.308;2023-07-20T00:04:57;21.50;70.10
37658;DHT22;23500;53.268;8.308;2023-07-20T00:07:23;21.50;70.00
37658;DHT22;23500;53.268;8.308;2023-07-20T00:09:50;21.50;70.00
37658;DHT22;23500;53.268;8.308;2023-07-20T00:12:15;21.50;69.90
37658;DHT22;23500;53.268;8.308;2023-07-20T00:14:41;21.50;70.00
37658;DHT22;23500;53.268;8.308;2023-07-20T00:17:07;21.50;70.00
37658;DHT22;23500;53.268;8.308;2023-07-20T00:19:32;21.50;70.00
37658;DHT22;23500;53.268;8.308;2023-07-20T00:21:58;21.50;70.10
37658;DHT22;23500;53.268;8.308;2023-07-20T00:24:24;21.50;70.10
37658;DHT22;23500;53.268;8.308;2023-07-20T00:26:50;21.50;70.40
37658;DHT22;23500;53.268;8.308;2023-07-20T00:29:15;21.50;70.10
37658;DHT22;23500;53.268;8.308;2023-07-20T00:31:41;21.50;70.20
37658;DHT22;23500;53.268;8.308;2023-07-20T00:34:08;21.40;70.20
37658;DHT22;23500;53.268;8.308;2023-07-20T00:36:34;21.40;70.20
37658;DHT22;23500;53.268;8.308;2023-07-20T00:39:00;21.40;70.40
37658;DHT22;23500;53.268;8.308;2023-07-20T00:41:25;21.40;70.40
37658;DHT22;23500;53.268;8.308;2023-07-20T00:43:55;21.40;70.20
37658;DHT22;23500;53.268;8.308;2023-07-20T00:46:23;21.50;70.30
37658;DHT22;23500;53.268;8.308;2023-07-20T00:48:50;21.40;70.30
37658;DHT22;23500;53.268;8.308;2023-07-20T00:51:15;21.40;70.30
37658;DHT22;23500;53.268;8.308;2023-07-20T00:53:41;21.50;70.40
37658;DHT22;23500;53.268;8.308;2023-07-20T00:56:07;21.50;70.60
37658;DHT22;23500;53.268;8.308;2023-07-20T00:58:34;21.40;70.60
37658;DHT22;23500;53.268;8.308;2023-07-20T01:01:00;21.40;70.60
37658;DHT22;23500;53.268;8.308;2023-07-20T01:03:26;21.50;70.60
37658;DHT22;23500;53.268;8.308;2023-07-20T01:06:16;21.40;70.50
37658;DHT22;23500;53.268;8.308;2023-07-20T01:11:48;21.50;70.50
37658;DHT22;23500;53.268;8.308;2023-07-20T01:14:17;21.40;70.70
37658;DHT22;23500;53.268;8.308;2023-07-20T01:16:43;21.40;70.40
37658;DHT22;23500;53.268;8.308;2023-07-20T01:19:09;21.40;70.40
37658;DHT22;23500;53.268;8.308;2023-07-20T01:21:43;21.40;70.50
37658;DHT22;23500;53.268;8.308;2023-07-20T01:32:31;21.40;70.40
37658;DHT22;23500;53.268;8.308;2023-07-20T01:34:58;21.40;70.40
37658;DHT22;23500;53.268;8.308;2023-07-20T01:37:25;21.40;70.40
37658;DHT22;23500;53.268;8.308;2023-07-20T01:39:55;21.40;70.40
37658;DHT22;23500;53.268;8.308;2023-07-20T01:42:22;21.40;70.50
37658;DHT22;23500;53.268;8.308;2023-07-20T01:44:51;21.40;70.50
37658;DHT22;23500;53.268;8.308;2023-07-20T01:47:18;21.30;70.50
37658;DHT22;23500;53.268;8.308;2023-07-20T01:49:43;21.40;70.60
37658;DHT22;23500;53.268;8.308;2023-07-20T01:52:09;21.30;70.60
37658;DHT22;23500;53.268;8.308;2023-07-20T01:54:34;21.40;70.50
37658;DHT22;23500;53.268;8.308;2023-07-20T01:57:00;21.30;70.50
37658;DHT22;23500;53.268;8.308;2023-07-20T01:59:26;21.30;70.50
37658;DHT22;23500;53.268;8.308;2023-07-20T02:01:52;21.40;70.50
37658;DHT22;23500;53.268;8.308;2023-07-20T02:04:18;21.30;70.50
37658;DHT22;23500;53.268;8.308;2023-07-20T02:06:43;21.30;70.60
37658;DHT22;23500;53.268;8.308;2023-07-20T02:09:09;21.40;70.60
37658;DHT22;23500;53.268;8.308;2023-07-20T02:11:35;21.30;70.50
37658;DHT22;23500;53.268;8.308;2023-07-20T02:14:00;21.30;70.60
37658;DHT22;23500;53.268;8.308;2023-07-20T02:16:26;21.30;70.70
37658;DHT22;23500;53.268;8.308;2023-07-20T02:18:52;21.30;70.60
37658;DHT22;23500;53.268;8.308;2023-07-20T02:21:18;21.30;70.60
37658;DHT22;23500;53.268;8.308;2023-07-20T02:23:44;21.30;70.60
37658;DHT22;23500;53.268;8.308;2023-07-20T02:26:09;21.30;70.60
37658;DHT22;23500;53.268;8.308;2023-07-20T02:28:35;21.30;70.60
37658;DHT22;23500;53.268;8.308;2023-07-20T02:31:01;21.30;70.70
37658;DHT22;23500;53.268;8.308;2023-07-20T02:33:26;21.30;70.70
37658;DHT22;23500;53.268;8.308;2023-07-20T02:35:52;21.30;70.60
37658;DHT22;23500;53.268;8.308;2023-07-20T02:38:18;21.30;70.60
37658;DHT22;23500;53.268;8.308;2023-07-20T02:40:43;21.30;70.60
37658;DHT22;23500;53.268;8.308;2023-07-20T02:43:09;21.30;70.50
37658;DHT22;23500;53.268;8.308;2023-07-20T02:45:35;21.30;70.70
37658;DHT22;23500;53.268;8.308;2023-07-20T02:48:05;21.30;70.60
37658;DHT22;23500;53.268;8.308;2023-07-20T02:50:33;21.20;70.50
37658;DHT22;23500;53.268;8.308;2023-07-20T02:53:00;21.30;70.60
37658;DHT22;23500;53.268;8.308;2023-07-20T02:55:25;21.30;70.60
37658;DHT22;23500;53.268;8.308;2023-07-20T02:57:51;21.20;70.60
37658;DHT22;23500;53.268;8.308;2023-07-20T03:00:17;21.20;70.50
37658;DHT22;23500;53.268;8.308;2023-07-20T03:02:45;21.30;70.70
37658;DHT22;23500;53.268;8.308;2023-07-20T03:05:13;21.20;70.60
37658;DHT22;23500;53.268;8.308;2023-07-20T03:07:39;21.20;70.50
37658;DHT22;23500;53.268;8.308;2023-07-20T03:10:05;21.20;70.50
37658;DHT22;23500;53.268;8.308;2023-07-20T03:12:35;21.30;70.60
37658;DHT22;23500;53.268;8.308;2023-07-20T03:15:02;21.20;70.50
37658;DHT22;23500;53.268;8.308;2023-07-20T03:17:27;21.20;70.60
37658;DHT22;23500;53.268;8.308;2023-07-20T03:19:53;21.20;70.50
37658;DHT22;23500;53.268;8.308;2023-07-20T03:22:19;21.20;70.50
37658;DHT22;23500;53.268;8.308;2023-07-20T03:24:44;21.20;70.50
37658;DHT22;23500;53.268;8.308;2023-07-20T03:27:10;21.20;70.40
37658;DHT22;23500;53.268;8.308;2023-07-20T03:29:36;21.20;70.40
37658;DHT22;23500;53.268;8.308;2023-07-20T03:32:01;21.20;70.40
37658;DHT22;23500;53.268;8.308;2023-07-20T03:34:27;21.20;70.20
37658;DHT22;23500;53.268;8.308;2023-07-20T03:36:53;21.20;70.00
37658;DHT22;23500;53.268;8.308;2023-07-20T03:39:18;21.20;70.00
37658;DHT22;23500;53.268;8.308;2023-07-20T03:41:44;21.20;70.00
37658;DHT22;23500;53.268;8.308;2023-07-20T03:44:10;21.20;69.80
37658;DHT22;23500;53.268;8.308;2023-07-20T03:46:36;21.20;70.00
37658;DHT22;23500;53.268;8.308;2023-07-20T03:49:01;21.20;70.00
37658;DHT22;23500;53.268;8.308;2023-07-20T03:51:27;21.20;70.00
37658;DHT22;23500;53.268;8.308;2023-07-20T03:53:53;21.20;69.80
37658;DHT22;23500;53.268;8.308;2023-07-20T03:56:18;21.20;69.80
37658;DHT22;23500;53.268;8.308;2023-07-20T03:58:44;21.20;69.70
37658;DHT22;23500;53.268;8.308;2023-07-20T04:01:10;21.20;69.60
37658;DHT22;23500;53.268;8.308;2023-07-20T04:03:35;21.20;69.60
37658;DHT22;23500;53.268;8.308;2023-07-20T04:06:02;21.20;69.50
37658;DHT22;23500;53.268;8.308;2023-07-20T04:08:27;21.20;69.60
37658;DHT22;23500;53.268;8.308;2023-07-20T04:10:53;21.20;69.60
37658;DHT22;23500;53.268;8.308;2023-07-20T04:13:19;21.20;69.40
37658;DHT22;23500;53.268;8.308;2023-07-20T04:15:44;21.20;69.30
37658;DHT22;23500;53.268;8.308;2023-07-20T04:18:10;21.20;69.40
37658;DHT22;23500;53.268;8.308;2023-07-20T04:20:36;21.20;69.40
37658;DHT22;23500;53.268;8.308;2023-07-20T04:23:01;21.20;69.40
37658;DHT22;23500;53.268;8.308;2023-07-20T04:25:27;21.30;69.10
37658;DHT22;23500;53.268;8.308;2023-07-20T04:27:53;21.50;68.70
37658;DHT22;23500;53.268;8.308;2023-07-20T04:30:19;21.70;68.20
37658;DHT22;23500;53.268;8.308;2023-07-20T04:32:46;21.90;67.70
37658;DHT22;23500;53.268;8.308;2023-07-20T04:35:18;22.10;66.90
37658;DHT22;23500;53.268;8.308;2023-07-20T04:37:44;22.30;66.70
37658;DHT22;23500;53.268;8.308;2023-07-20T04:40:15;22.50;65.90
37658;DHT22;23500;53.268;8.308;2023-07-20T04:42:41;22.60;65.40
37658;DHT22;23500;53.268;8.308;2023-07-20T04:45:07;22.80;64.80
37658;DHT22;23500;53.268;8.308;2023-07-20T04:47:33;23.00;64.90
37658;DHT22;23500;53.268;8.308;2023-07-20T04:49:58;23.10;63.70
37658;DHT22;23500;53.268;8.308;2023-07-20T04:52:24;23.30;63.10
37658;DHT22;23500;53.268;8.308;2023-07-20T04:54:49;23.40;63.00
37658;DHT22;23500;53.268;8.308;2023-07-20T04:57:15;23.50;62.70
37658;DHT22;23500;53.268;8.308;2023-07-20T04:59:41;23.70;62.60
37658;DHT22;23500;53.268;8.308;2023-07-20T05:02:06;23.80;62.00
37658;DHT22;23500;53.268;8.308;2023-07-20T05:04:32;23.90;61.40
37658;DHT22;23500;53.268;8.308;2023-07-20T05:06:58;24.00;60.80
37658;DHT22;23500;53.268;8.308;2023-07-20T05:09:23;24.10;60.40
37658;DHT22;23500;53.268;8.308;2023-07-20T05:11:49;24.20;60.00
37658;DHT22;23500;53.268;8.308;2023-07-20T05:14:15;24.30;59.50
37658;DHT22;23500;53.268;8.308;2023-07-20T05:16:40;24.40;59.20
37658;DHT22;23500;53.268;8.308;2023-07-20T05:19:06;24.50;58.90
37658;DHT22;23500;53.268;8.308;2023-07-20T05:21:32;24.50;58.70
37658;DHT22;23500;53.268;8.308;2023-07-20T05:23:57;24.50;58.50
37658;DHT22;23500;53.268;8.308;2023-07-20T05:26:23;24.40;58.40
37658;DHT22;23500;53.268;8.308;2023-07-20T05:28:48;24.20;59.00
37658;DHT22;23500;53.268;8.308;2023-07-20T05:31:14;23.90;59.50
37658;DHT22;23500;53.268;8.308;2023-07-20T05:33:40;23.70;59.80
37658;DHT22;23500;53.268;8.308;2023-07-20T05:36:05;23.50;60.30
37658;DHT22;23500;53.268;8.308;2023-07-20T05:38:31;23.70;60.10
37658;DHT22;23500;53.268;8.308;2023-07-20T05:40:59;23.90;59.50
37658;DHT22;23500;53.268;8.308;2023-07-20T05:43:26;24.00;59.10
37658;DHT22;23500;53.268;8.308;2023-07-20T05:45:51;24.10;58.90
37658;DHT22;23500;53.268;8.308;2023-07-20T05:48:17;24.20;58.70
37658;DHT22;23500;53.268;8.308;2023-07-20T05:50:43;24.30;58.30
37658;DHT22;23500;53.268;8.308;2023-07-20T05:53:09;24.40;58.10
37658;DHT22;23500;53.268;8.308;2023-07-20T05:55:34;24.50;58.10
37658;DHT22;23500;53.268;8.308;2023-07-20T05:58:00;24.50;57.60
37658;DHT22;23500;53.268;8.308;2023-07-20T06:00:26;24.60;57.40
37658;DHT22;23500;53.268;8.308;2023-07-20T06:02:55;24.60;57.30
37658;DHT22;23500;53.268;8.308;2023-07-20T06:05:23;24.50;57.60
37658;DHT22;23500;53.268;8.308;2023-07-20T06:07:50;24.50;57.90
37658;DHT22;23500;53.268;8.308;2023-07-20T06:10:16;24.60;58.00
37658;DHT22;23500;53.268;8.308;2023-07-20T06:12:41;24.60;58.00
37658;DHT22;23500;53.268;8.308;2023-07-20T06:15:28;24.60;58.00
37658;DHT22;23500;53.268;8.308;2023-07-20T06:17:55;24.60;58.00
37658;DHT22;23500;53.268;8.308;2023-07-20T06:20:22;24.60;58.00
37658;DHT22;23500;53.268;8.308;2023-07-20T06:22:48;24.70;58.00
37658;DHT22;23500;53.268;8.308;2023-07-20T06:25:13;24.70;58.00
37658;DHT22;23500;53.268;8.308;2023-07-20T06:27:39;24.70;58.00
37658;DHT22;23500;53.268;8.308;2023-07-20T06:30:05;24.70;58.10
37658;DHT22;23500;53.268;8.308;2023-07-20T06:32:31;24.70;58.30
37658;DHT22;23500;53.268;8.308;2023-07-20T06:34:56;24.70;58.20
37658;DHT22;23500;53.268;8.308;2023-07-20T06:37:22;24.70;58.00
37658;DHT22;23500;53.268;8.308;2023-07-20T06:39:48;24.80;58.10
37658;DHT22;23500;53.268;8.308;2023-07-20T06:42:14;24.80;58.20
37658;DHT22;23500;53.268;8.308;2023-07-20T06:44:39;24.80;57.80
37658;DHT22;23500;53.268;8.308;2023-07-20T06:47:05;24.80;57.70
37658;DHT22;23500;53.268;8.308;2023-07-20T06:49:31;24.90;57.90
37658;DHT22;23500;53.268;8.308;2023-07-20T06:51:56;24.90;58.10
37658;DHT22;23500;53.268;8.308;2023-07-20T06:54:22;24.90;58.00
37658;DHT22;23500;53.268;8.308;2023-07-20T06:56:48;24.90;57.80
37658;DHT22;23500;53.268;8.308;2023-07-20T06:59:13;24.90;57.80
37658;DHT22;23500;53.268;8.308;2023-07-20T07:01:39;24.90;57.80
37658;DHT22;23500;53.268;8.308;2023-07-20T07:04:05;24.90;57.80
37658;DHT22;23500;53.268;8.308;2023-07-20T07:06:31;24.90;57.90
37658;DHT22;23500;53.268;8.308;2023-07-20T07:08:57;24.80;57.80
37658;DHT22;23500;53.268;8.308;2023-07-20T07:11:22;24.90;58.50
37658;DHT22;23500;53.268;8.308;2023-07-20T07:13:48;24.80;57.90
37658;DHT22;23500;53.268;8.308;2023-07-20T07:16:16;24.90;58.10
37658;DHT22;23500;53.268;8.308;2023-07-20T07:18:45;24.90;58.10
37658;DHT22;23500;53.268;8.308;2023-07-20T07:21:11;24.90;58.10
37658;DHT22;23500;53.268;8.308;2023-07-20T07:23:38;24.90;58.10
37658;DHT22;23500;53.268;8.308;2023-07-20T07:26:04;24.90;58.10
37658;DHT22;23500;53.268;8.308;2023-07-20T07:28:29;24.80;58.20
37658;DHT22;23500;53.268;8.308;2023-07-20T07:30:55;24.70;58.30
37658;DHT22;23500;53.268;8.308;2023-07-20T07:33:22;24.70;58.60
37658;DHT22;23500;53.268;8.308;2023-07-20T07:35:49;24.70;58.60
37658;DHT22;23500;53.268;8.308;2023-07-20T07:38:14;24.50;59.40
37658;DHT22;23500;53.268;8.308;2023-07-20T07:40:40;24.50;59.00
37658;DHT22;23500;53.268;8.308;2023-07-20T07:43:06;24.50;59.10
37658;DHT22;23500;53.268;8.308;2023-07-20T07:45:34;24.50;59.00
37658;DHT22;23500;53.268;8.308;2023-07-20T07:48:02;24.40;59.30
37658;DHT22;23500;53.268;8.308;2023-07-20T07:50:27;24.30;59.50
37658;DHT22;23500;53.268;8.308;2023-07-20T07:52:53;24.30;59.60
37658;DHT22;23500;53.268;8.308;2023-07-20T07:55:19;24.40;59.50
37658;DHT22;23500;53.268;8.308;2023-07-20T07:57:45;24.40;59.40
37658;DHT22;23500;53.268;8.308;2023-07-20T08:00:13;24.40;59.30
37658;DHT22;23500;53.268;8.308;2023-07-20T08:02:43;24.50;59.30
37658;DHT22;23500;53.268;8.308;2023-07-20T08:05:09;24.50;59.30
37658;DHT22;23500;53.268;8.308;2023-07-20T08:07:38;24.50;59.30
37658;DHT22;23500;53.268;8.308;2023-07-20T08:10:05;24.50;59.30
37658;DHT22;23500;53.268;8.308;2023-07-20T08:12:31;24.50;59.40
37658;DHT22;23500;53.268;8.308;2023-07-20T08:14:57;24.40;59.50
37658;DHT22;23500;53.268;8.308;2023-07-20T08:17:23;24.40;59.50
37658;DHT22;23500;53.268;8.308;2023-07-20T08:19:48;24.40;59.50
37658;DHT22;23500;53.268;8.308;2023-07-20T08:22:14;24.40;59.60
37658;DHT22;23500;53.268;8.308;2023-07-20T08:24:40;24.40;59.70
37658;DHT22;23500;53.268;8.308;2023-07-20T08:27:06;24.30;59.70
37658;DHT22;23500;53.268;8.308;2023-07-20T08:29:32;24.30;59.80
37658;DHT22;23500;53.268;8.308;2023-07-20T08:31:57;24.30;59.80
37658;DHT22;23500;53.268;8.308;2023-07-20T08:34:23;24.30;60.00
37658;DHT22;23500;53.268;8.308;2023-07-20T08:36:48;24.20;60.10
37658;DHT22;23500;53.268;8.308;2023-07-20T08:39:14;24.10;60.40
37658;DHT22;23500;53.268;8.308;2023-07-20T08:41:42;24.10;60.40
37658;DHT22;23500;53.268;8.308;2023-07-20T08:44:09;24.10;60.40
37658;DHT22;23500;53.268;8.308;2023-07-20T08:46:38;24.10;60.40
37658;DHT22;23500;53.268;8.308;2023-07-20T08:49:04;24.10;60.30
37658;DHT22;23500;53.268;8.308;2023-07-20T08:51:32;24.10;60.40
37658;DHT22;23500;53.268;8.308;2023-07-20T08:53:58;24.10;60.30
37658;DHT22;23500;53.268;8.308;2023-07-20T08:56:25;24.10;60.40
37658;DHT22;23500;53.268;8.308;2023-07-20T08:58:54;24.10;60.60
37658;DHT22;23500;53.268;8.308;2023-07-20T09:01:21;24.00;60.70
37658;DHT22;23500;53.268;8.308;2023-07-20T09:03:47;23.90;61.00
37658;DHT22;23500;53.268;8.308;2023-07-20T09:06:14;23.80;61.20
37658;DHT22;23500;53.268;8.308;2023-07-20T09:08:40;23.70;61.50
37658;DHT22;23500;53.268;8.308;2023-07-20T09:11:06;23.70;61.60
37658;DHT22;23500;53.268;8.308;2023-07-20T09:13:34;23.70;61.70
37658;DHT22;23500;53.268;8.308;2023-07-20T09:16:00;23.70;61.80
37658;DHT22;23500;53.268;8.308;2023-07-20T09:18:30;23.70;61.70
37658;DHT22;23500;53.268;8.308;2023-07-20T09:21:04;23.70;61.80
37658;DHT22;23500;53.268;8.308;2023-07-20T09:23:35;23.70;61.80
37658;DHT22;23500;53.268;8.308;2023-07-20T09:26:12;23.70;61.90
37658;DHT22;23500;53.268;8.308;2023-07-20T09:28:52;23.60;61.90
37658;DHT22;23500;53.268;8.308;2023-07-20T09:31:19;23.60;62.00
37658;DHT22;23500;53.268;8.308;2023-07-20T09:33:45;23.60;62.20
37658;DHT22;23500;53.268;8.308;2023-07-20T09:36:11;23.60;62.20
37658;DHT22;23500;53.268;8.308;2023-07-20T09:38:38;23.60;62.20
37658;DHT22;23500;53.268;8.308;2023-07-20T09:41:07;23.60;62.00
37658;DHT22;23500;53.268;8.308;2023-07-20T09:43:34;23.70;61.90
37658;DHT22;23500;53.268;8.308;2023-07-20T09:46:00;23.70;61.90
37658;DHT22;23500;53.268;8.308;2023-07-20T09:48:26;23.70;62.70
37658;DHT22;23500;53.268;8.308;2023-07-20T09:50:53;23.60;62.10
37658;DHT22;23500;53.268;8.308;2023-07-20T09:53:19;23.60;62.30
37658;DHT22;23500;53.268;8.308;2023-07-20T09:55:46;23.50;62.30
37658;DHT22;23500;53.268;8.308;2023-07-20T09:58:13;23.50;62.40
37658;DHT22;23500;53.268;8.308;2023-07-20T10:00:40;23.50;62.40
37658;DHT22;23500;53.268;8.308;2023-07-20T10:03:09;23.60;62.30
37658;DHT22;23500;53.268;8.308;2023-07-20T10:05:40;23.60;62.40
37658;DHT22;23500;53.268;8.308;2023-07-20T10:08:12;23.60;62.30
37658;DHT22;23500;53.268;8.308;2023-07-20T10:10:40;23.60;62.30
37658;DHT22;23500;53.268;8.308;2023-07-20T10:13:10;23.60;62.30
37658;DHT22;23500;53.268;8.308;2023-07-20T10:15:53;23.60;62.10
37658;DHT22;23500;53.268;8.308;2023-07-20T10:18:28;23.70;62.00
37658;DHT22;23500;53.268;8.308;2023-07-20T10:20:55;23.70;61.90
37658;DHT22;23500;53.268;8.308;2023-07-20T10:23:22;23.70;61.90
37658;DHT22;23500;53.268;8.308;2023-07-20T10:25:49;23.70;61.90
37658;DHT22;23500;53.268;8.308;2023-07-20T10:28:15;23.70;62.60
37658;DHT22;23500;53.268;8.308;2023-07-20T10:30:42;23.70;61.80
37658;DHT22;23500;53.268;8.308;2023-07-20T10:33:08;23.80;61.80
37658;DHT22;23500;53.268;8.308;2023-07-20T10:35:57;23.70;61.80
37658;DHT22;23500;53.268;8.308;2023-07-20T10:38:41;23.70;61.80
37658;DHT22;23500;53.268;8.308;2023-07-20T10:41:33;23.70;62.00
37658;DHT22;23500;53.268;8.308;2023-07-20T10:44:07;23.70;62.00
37658;DHT22;23500;53.268;8.308;2023-07-20T10:46:43;23.70;62.00
37658;DHT22;23500;53.268;8.308;2023-07-20T10:49:13;23.70;62.00
37658;DHT22;23500;53.268;8.308;2023-07-20T10:51:45;23.70;62.00
37658;DHT22;23500;53.268;8.308;2023-07-20T10:56:46;23.70;62.00
37658;DHT22;23500;53.268;8.308;2023-07-20T11:01:49;23.70;62.10
37658;DHT22;23500;53.268;8.308;2023-07-20T11:04:15;23.70;62.00
37658;DHT22;23500;53.268;8.308;2023-07-20T11:06:44;23.70;62.00
37658;DHT22;23500;53.268;8.308;2023-07-20T11:09:11;23.70;62.00
37658;DHT22;23500;53.268;8.308;2023-07-20T11:11:44;23.80;62.00
37658;DHT22;23500;53.268;8.308;2023-07-20T11:14:21;23.80;61.90
37658;DHT22;23500;53.268;8.308;2023-07-20T11:16:47;23.80;61.90
37658;DHT22;23500;53.268;8.308;2023-07-20T11:19:24;23.80;62.50
37658;DHT22;23500;53.268;8.308;2023-07-20T11:21:51;23.80;61.80
37658;DHT22;23500;53.268;8.308;2023-07-20T11:24:18;23.80;61.70
37658;DHT22;23500;53.268;8.308;2023-07-20T11:26:53;23.80;61.80
37658;DHT22;23500;53.268;8.308;2023-07-20T11:29:23;23.80;61.70
37658;DHT22;23500;53.268;8.308;2023-07-20T11:31:50;23.90;61.80
37658;DHT22;23500;53.268;8.308;2023-07-20T11:34:20;23.90;61.70
37658;DHT22;23500;53.268;8.308;2023-07-20T11:36:50;23.90;61.60
37658;DHT22;23500;53.268;8.308;2023-07-20T11:39:18;23.90;61.60
37658;DHT22;23500;53.268;8.308;2023-07-20T11:41:48;23.90;61.50
37658;DHT22;23500;53.268;8.308;2023-07-20T11:44:19;23.90;61.50
37658;DHT22;23500;53.268;8.308;2023-07-20T11:46:46;23.90;61.50
37658;DHT22;23500;53.268;8.308;2023-07-20T11:49:12;23.90;61.50
37658;DHT22;23500;53.268;8.308;2023-07-20T11:51:39;24.00;61.50
37658;DHT22;23500;53.268;8.308;2023-07-20T11:54:07;24.00;61.50
37658;DHT22;23500;53.268;8.308;2023-07-20T11:56:33;24.00;61.50
37658;DHT22;23500;53.268;8.308;2023-07-20T11:59:00;23.90;61.50
37658;DHT22;23500;53.268;8.308;2023-07-20T12:01:27;23.90;61.60
37658;DHT22;23500;53.268;8.308;2023-07-20T12:04:04;23.90;61.80
37658;DHT22;23500;53.268;8.308;2023-07-20T12:06:30;23.80;61.80
37658;DHT22;23500;53.268;8.308;2023-07-20T12:08:57;23.80;61.90
37658;DHT22;23500;53.268;8.308;2023-07-20T12:11:37;23.80;61.90
37658;DHT22;23500;53.268;8.308;2023-07-20T12:14:09;23.80;61.90
37658;DHT22;23500;53.268;8.308;2023-07-20T12:16:36;23.80;62.10
37658;DHT22;23500;53.268;8.308;2023-07-20T12:19:12;23.70;62.10
37658;DHT22;23500;53.268;8.308;2023-07-20T12:21:40;23.70;62.20
37658;DHT22;23500;53.268;8.308;2023-07-20T12:24:08;23.70;62.20
37658;DHT22;23500;53.268;8.308;2023-07-20T12:26:37;23.70;62.20
37658;DHT22;23500;53.268;8.308;2023-07-20T12:29:03;23.70;62.20
37658;DHT22;23500;53.268;8.308;2023-07-20T12:31:30;23.80;62.10
37658;DHT22;23500;53.268;8.308;2023-07-20T12:33:57;23.80;62.00
37658;DHT22;23500;53.268;8.308;2023-07-20T12:36:24;23.90;62.00
37658;DHT22;23500;53.268;8.308;2023-07-20T12:38:50;23.90;61.90
37658;DHT22;23500;53.268;8.308;2023-07-20T12:41:16;23.90;61.90
37658;DHT22;23500;53.268;8.308;2023-07-20T12:43:42;23.90;62.00
37658;DHT22;23500;53.268;8.308;2023-07-20T12:46:09;23.80;62.00
37658;DHT22;23500;53.268;8.308;2023-07-20T12:48:36;23.80;62.10
37658;DHT22;23500;53.268;8.308;2023-07-20T12:51:06;23.80;62.20
37658;DHT22;23500;53.268;8.308;2023-07-20T12:53:33;23.70;62.20
37658;DHT22;23500;53.268;8.308;2023-07-20T12:56:01;23.70;62.20
37658;DHT22;23500;53.268;8.308;2023-07-20T12:58:27;23.70;62.20
37658;DHT22;23500;53.268;8.308;2023-07-20T13:00:53;23.80;62.30
37658;DHT22;23500;53.268;8.308;2023-07-20T13:03:19;23.80;62.20
37658;DHT22;23500;53.268;8.308;2023-07-20T13:05:46;23.90;62.10
37658;DHT22;23500;53.268;8.308;2023-07-20T13:08:11;23.90;61.90
37658;DHT22;23500;53.268;8.308;2023-07-20T13:10:37;23.90;61.90
37658;DHT22;23500;53.268;8.308;2023-07-20T13:13:06;23.90;61.90
37658;DHT22;23500;53.268;8.308;2023-07-20T13:15:40;23.90;62.00
37658;DHT22;23500;53.268;8.308;2023-07-20T13:18:06;23.80;62.20
37658;DHT22;23500;53.268;8.308;2023-07-20T13:20:31;23.80;62.30
37658;DHT22;23500;53.268;8.308;2023-07-20T13:22:57;23.80;62.20
37658;DHT22;23500;53.268;8.308;2023-07-20T13:25:23;23.90;62.20
37658;DHT22;23500;53.268;8.308;2023-07-20T13:27:49;23.90;62.20
37658;DHT22;23500;53.268;8.308;2023-07-20T13:30:15;23.80;62.10
37658;DHT22;23500;53.268;8.308;2023-07-20T13:32:45;23.90;62.30
37658;DHT22;23500;53.268;8.308;2023-07-20T13:35:11;23.90;62.20
37658;DHT22;23500;53.268;8.308;2023-07-20T13:37:37;23.80;62.20
37658;DHT22;23500;53.268;8.308;2023-07-20T13:40:03;23.80;62.30
37658;DHT22;23500;53.268;8.308;2023-07-20T13:42:31;23.80;62.40
37658;DHT22;23500;53.268;8.308;2023-07-20T13:44:57;23.70;62.40
37658;DHT22;23500;53.268;8.308;2023-07-20T13:47:22;23.70;62.40
37658;DHT22;23500;53.268;8.308;2023-07-20T13:49:48;23.70;62.50
37658;DHT22;23500;53.268;8.308;2023-07-20T13:52:14;23.70;62.80
37658;DHT22;23500;53.268;8.308;2023-07-20T13:54:40;23.70;62.90
37658;DHT22;23500;53.268;8.308;2023-07-20T13:57:06;23.70;63.10
37658;DHT22;23500;53.268;8.308;2023-07-20T13:59:31;23.60;63.00
37658;DHT22;23500;53.268;8.308;2023-07-20T14:01:57;23.60;63.10
37658;DHT22;23500;53.268;8.308;2023-07-20T14:04:23;23.60;63.10
37658;DHT22;23500;53.268;8.308;2023-07-20T14:06:50;23.60;63.20
37658;DHT22;23500;53.268;8.308;2023-07-20T14:09:15;23.60;63.10
37658;DHT22;23500;53.268;8.308;2023-07-20T14:11:41;23.60;63.10
37658;DHT22;23500;53.268;8.308;2023-07-20T14:14:07;23.60;63.20
37658;DHT22;23500;53.268;8.308;2023-07-20T14:16:32;23.60;63.20
37658;DHT22;23500;53.268;8.308;2023-07-20T14:18:58;23.60;63.10
37658;DHT22;23500;53.268;8.308;2023-07-20T14:21:24;23.60;63.00
37658;DHT22;23500;53.268;8.308;2023-07-20T14:23:52;23.70;62.90
37658;DHT22;23500;53.268;8.308;2023-07-20T14:26:20;23.70;62.70
37658;DHT22;23500;53.268;8.308;2023-07-20T14:28:46;23.70;62.70
37658;DHT22;23500;53.268;8.308;2023-07-20T14:31:12;23.80;62.70
37658;DHT22;23500;53.268;8.308;2023-07-20T14:33:39;23.70;62.50
37658;DHT22;23500;53.268;8.308;2023-07-20T14:36:05;23.70;62.50
37658;DHT22;23500;53.268;8.308;2023-07-20T14:38:31;23.70;62.60
37658;DHT22;23500;53.268;8.308;2023-07-20T14:40:57;23.70;62.60
37658;DHT22;23500;53.268;8.308;2023-07-20T14:43:23;23.60;62.40
37658;DHT22;23500;53.268;8.308;2023-07-20T14:45:49;23.70;62.50
37658;DHT22;23500;53.268;8.308;2023-07-20T14:48:14;23.60;62.40
37658;DHT22;23500;53.268;8.308;2023-07-20T14:50:40;23.60;62.20
37658;DHT22;23500;53.268;8.308;2023-07-20T14:53:06;23.60;62.30
37658;DHT22;23500;53.268;8.308;2023-07-20T14:55:33;23.60;62.30
37658;DHT22;23500;53.268;8.308;2023-07-20T14:57:59;23.60;62.20
37658;DHT22;23500;53.268;8.308;2023-07-20T15:00:25;23.60;62.20
37658;DHT22;23500;53.268;8.308;2023-07-20T15:02:51;23.60;62.20
37658;DHT22;23500;53.268;8.308;2023-07-20T15:05:22;23.60;62.10
37658;DHT22;23500;53.268;8.308;2023-07-20T15:07:48;23.60;62.00
37658;DHT22;23500;53.268;8.308;2023-07-20T15:10:13;23.60;61.80
37658;DHT22;23500;53.268;8.308;2023-07-20T15:12:39;23.60;61.80
37658;DHT22;23500;53.268;8.308;2023-07-20T15:15:14;23.60;61.70
37658;DHT22;23500;53.268;8.308;2023-07-20T15:17:43;23.60;61.70
37658;DHT22;23500;53.268;8.308;2023-07-20T15:20:12;23.60;61.70
37658;DHT22;23500;53.268;8.308;2023-07-20T15:22:38;23.60;61.80
37658;DHT22;23500;53.268;8.308;2023-07-20T15:25:06;23.60;61.70
37658;DHT22;23500;53.268;8.308;2023-07-20T15:27:32;23.60;61.70
37658;DHT22;23500;53.268;8.308;2023-07-20T15:29:58;23.60;61.70
37658;DHT22;23500;53.268;8.308;2023-07-20T15:32:24;23.70;61.80
37658;DHT22;23500;53.268;8.308;2023-07-20T15:34:49;23.60;61.70
37658;DHT22;23500;53.268;8.308;2023-07-20T15:37:15;23.60;61.70
37658;DHT22;23500;53.268;8.308;2023-07-20T15:39:41;23.60;61.70
37658;DHT22;23500;53.268;8.308;2023-07-20T15:42:07;23.60;61.70
37658;DHT22;23500;53.268;8.308;2023-07-20T15:44:33;23.60;61.50